Time;durP1;ratioP1;P1;durP2;ratioP2;P2;SDS_P1;SDS_P2;PMS_P1;PMS_P2;Temp;Humidity;BMP_temperature;BMP_pressure;BME280_temperature;BME280_humidity;BME280_pressure;Samples;Min_cycle;Max_cycle;Signal;HPM_P1;HPM_P2
2021/12/11 00:00:41;;;;;;;;;;;18.50;34.70;;;;;;5157299;27;20398;-52
2021/12/11 00:03:06;;;;;;;;;;;18.50;34.60;;;;;;5157545;27;20010;-51
2021/12/11 00:05:32;;;;;;;;;;;18.50;34.60;;;;;;5157209;27;19954;-51
2021/12/11 00:07:58;;;;;;;;;;;18.50;34.70;;;;;;5157104;27;19907;-50
2021/12/11 00:10:24;;;;;;;;;;;18.50;34.70;;;;;;5157514;27;19972;-49
2021/12/11 00:12:52;;;;;;;;;;;18.50;34.70;;;;;;5156887;27;19954;-51
2021/12/11 00:15:23;;;;;;;;;;;18.50;34.70;;;;;;5157118;27;20377;-51
2021/12/11 00:17:55;;;;;;;;;;;18.50;34.60;;;;;;5156836;27;20299;-52
2021/12/11 00:20:24;;;;;;;;;;;18.50;34.70;;;;;;5156882;27;19914;-53
2021/12/11 00:22:50;;;;;;;;;;;18.50;34.70;;;;;;5157069;27;19953;-51
2021/12/11 00:25:16;;;;;;;;;;;18.50;34.70;;;;;;5157024;27;19942;-51
2021/12/11 00:27:43;;;;;;;;;;;18.40;34.70;;;;;;5156907;27;19911;-53
2021/12/11 00:30:10;;;;;;;;;;;18.50;34.60;;;;;;5156681;27;19907;-51
2021/12/11 00:32:36;;;;;;;;;;;18.50;34.70;;;;;;5156617;27;20295;-50
2021/12/11 00:35:05;;;;;;;;;;;18.40;34.60;;;;;;5156685;27;19907;-51
2021/12/11 00:37:31;;;;;;;;;;;18.50;34.60;;;;;;5156686;27;19907;-53
2021/12/11 00:39:59;;;;;;;;;;;18.40;34.60;;;;;;5156653;27;19963;-54
2021/12/11 00:42:32;;;;;;;;;;;18.40;34.60;;;;;;5156503;27;19907;-53
2021/12/11 00:44:59;;;;;;;;;;;18.40;34.60;;;;;;5156780;27;20018;-49
2021/12/11 00:47:26;;;;;;;;;;;18.40;34.60;;;;;;5156770;27;19952;-51
2021/12/11 00:49:55;;;;;;;;;;;18.40;34.70;;;;;;5156658;27;19911;-52
2021/12/11 00:52:31;;;;;;;;;;;18.40;34.60;;;;;;5156454;27;19911;-51
2021/12/11 00:54:57;;;;;;;;;;;18.40;34.60;;;;;;5155935;27;19917;-51
2021/12/11 00:57:23;;;;;;;;;;;18.40;34.60;;;;;;5155981;27;20261;-50
2021/12/11 00:59:57;;;;;;;;;;;18.40;34.60;;;;;;5156122;27;19979;-52
2021/12/11 01:02:23;;;;;;;;;;;18.40;34.50;;;;;;5156408;27;19906;-50
2021/12/11 01:04:48;;;;;;;;;;;18.30;34.60;;;;;;5156048;27;20324;-52
2021/12/11 01:07:19;;;;;;;;;;;18.40;34.50;;;;;;5155921;27;20017;-51
2021/12/11 01:09:56;;;;;;;;;;;18.40;34.60;;;;;;5156262;27;19907;-51
2021/12/11 01:12:25;;;;;;;;;;;18.30;34.60;;;;;;5137320;27;19916;-52
2021/12/11 01:14:54;;;;;;;;;;;18.30;34.50;;;;;;5156129;27;20319;-50
2021/12/11 01:18:21;;;;;;;;;;;18.30;34.60;;;;;;5156000;27;19907;-50
2021/12/11 01:20:59;;;;;;;;;;;18.30;34.60;;;;;;5051681;28;19970;-50
2021/12/11 01:25:59;;;;;;;;;;;18.30;34.50;;;;;;5155936;27;20346;-52
2021/12/11 01:28:25;;;;;;;;;;;18.30;34.60;;;;;;5155657;27;19911;-52
2021/12/11 01:30:51;;;;;;;;;;;18.30;34.50;;;;;;5155822;27;20393;-52
2021/12/11 01:33:17;;;;;;;;;;;18.20;34.50;;;;;;5155608;27;20365;-56
2021/12/11 01:35:42;;;;;;;;;;;18.20;34.50;;;;;;5155714;27;19908;-50
2021/12/11 01:38:14;;;;;;;;;;;18.30;34.60;;;;;;5155403;27;19907;-51
2021/12/11 01:40:40;;;;;;;;;;;18.30;34.50;;;;;;5155696;27;19907;-53
2021/12/11 01:43:06;;;;;;;;;;;18.20;34.50;;;;;;5155600;27;19915;-52
2021/12/11 01:45:33;;;;;;;;;;;18.30;34.50;;;;;;5155361;27;19952;-52
2021/12/11 01:47:58;;;;;;;;;;;18.30;34.50;;;;;;5155280;27;19913;-51
2021/12/11 01:50:29;;;;;;;;;;;18.20;34.60;;;;;;5155459;27;19907;-54
2021/12/11 01:53:03;;;;;;;;;;;18.20;34.60;;;;;;5155264;27;19915;-55
2021/12/11 01:55:36;;;;;;;;;;;18.20;34.60;;;;;;5155087;27;20355;-53
2021/12/11 01:58:02;;;;;;;;;;;18.20;34.50;;;;;;5155444;27;19930;-56
2021/12/11 02:00:31;;;;;;;;;;;18.20;34.60;;;;;;5154884;27;20378;-55
2021/12/11 02:02:58;;;;;;;;;;;18.20;34.50;;;;;;5155355;27;19911;-52
2021/12/11 02:05:27;;;;;;;;;;;18.20;34.50;;;;;;5155011;27;20326;-54
2021/12/11 02:07:54;;;;;;;;;;;18.20;34.50;;;;;;5158448;27;19967;-54
2021/12/11 02:10:38;;;;;;;;;;;18.20;34.50;;;;;;5159544;27;19907;-53
2021/12/11 02:13:07;;;;;;;;;;;18.20;34.50;;;;;;5159337;27;20301;-53
2021/12/11 02:15:37;;;;;;;;;;;18.20;34.50;;;;;;5159411;27;19954;-52
2021/12/11 02:18:12;;;;;;;;;;;18.20;34.50;;;;;;5159532;27;19967;-53
2021/12/11 02:20:41;;;;;;;;;;;18.20;34.50;;;;;;5159367;27;20320;-51
2021/12/11 02:23:06;;;;;;;;;;;18.10;34.50;;;;;;5159220;27;19919;-50
2021/12/11 02:25:35;;;;;;;;;;;18.10;34.50;;;;;;5159144;27;19911;-50
2021/12/11 02:28:04;;;;;;;;;;;18.10;34.60;;;;;;5159232;27;19907;-53
2021/12/11 02:31:05;;;;;;;;;;;18.10;34.50;;;;;;5159516;27;19907;-49
2021/12/11 02:33:33;;;;;;;;;;;18.10;34.50;;;;;;5086526;27;19915;-54
2021/12/11 02:36:08;;;;;;;;;;;18.10;34.50;;;;;;5159225;27;19951;-51
2021/12/11 02:38:39;;;;;;;;;;;18.10;34.50;;;;;;5159154;27;19907;-50
2021/12/11 02:41:10;;;;;;;;;;;18.10;34.40;;;;;;5158805;27;20351;-51
2021/12/11 02:43:39;;;;;;;;;;;18.10;34.50;;;;;;5158901;27;19914;-51
2021/12/11 02:46:09;;;;;;;;;;;18.10;34.50;;;;;;5158945;27;19914;-49
2021/12/11 02:48:40;;;;;;;;;;;18.10;34.40;;;;;;5158613;27;19907;-50
2021/12/11 02:51:14;;;;;;;;;;;18.10;34.40;;;;;;5158652;27;20258;-51
2021/12/11 02:53:45;;;;;;;;;;;18.10;34.50;;;;;;5158594;27;19921;-50
2021/12/11 02:56:17;;;;;;;;;;;18.10;34.40;;;;;;5158568;27;20358;-52
2021/12/11 02:58:44;;;;;;;;;;;18.10;34.40;;;;;;5158289;27;19918;-50
2021/12/11 03:01:21;;;;;;;;;;;18.10;34.40;;;;;;5158689;27;19915;-56
2021/12/11 03:03:53;;;;;;;;;;;18.00;34.40;;;;;;5158493;27;20243;-51
2021/12/11 03:06:22;;;;;;;;;;;18.10;34.40;;;;;;5158355;27;20341;-52
2021/12/11 03:08:49;;;;;;;;;;;18.10;34.40;;;;;;5158422;27;19907;-51
2021/12/11 03:11:16;;;;;;;;;;;18.10;34.40;;;;;;5158193;27;19907;-52
2021/12/11 03:13:49;;;;;;;;;;;18.10;34.30;;;;;;5158335;27;19923;-52
2021/12/11 03:16:15;;;;;;;;;;;18.10;34.30;;;;;;5158456;27;19907;-49
2021/12/11 03:18:40;;;;;;;;;;;18.10;34.40;;;;;;5157444;27;20354;-50
2021/12/11 03:21:06;;;;;;;;;;;18.10;34.30;;;;;;5158072;27;20009;-50
2021/12/11 03:23:31;;;;;;;;;;;18.00;34.40;;;;;;5157960;27;19995;-51
2021/12/11 03:25:57;;;;;;;;;;;18.00;34.40;;;;;;5158010;27;20280;-50
2021/12/11 03:28:22;;;;;;;;;;;18.00;34.40;;;;;;5158067;27;19923;-52
2021/12/11 03:30:56;;;;;;;;;;;18.00;34.40;;;;;;5157741;27;20378;-50
2021/12/11 03:33:22;;;;;;;;;;;18.00;34.40;;;;;;5157857;27;19915;-50
2021/12/11 03:35:48;;;;;;;;;;;18.00;34.40;;;;;;5158062;27;19907;-50
2021/12/11 03:38:14;;;;;;;;;;;18.00;34.50;;;;;;5157684;27;20381;-54
2021/12/11 03:40:39;;;;;;;;;;;18.00;34.40;;;;;;5157985;27;20388;-50
2021/12/11 03:43:06;;;;;;;;;;;18.00;34.30;;;;;;5157928;27;20298;-52
2021/12/11 03:45:33;;;;;;;;;;;18.00;34.30;;;;;;5157759;27;19914;-53
2021/12/11 03:48:02;;;;;;;;;;;18.00;34.40;;;;;;5157627;27;19914;-51
2021/12/11 03:50:29;;;;;;;;;;;18.00;34.30;;;;;;5157737;27;19907;-51
2021/12/11 03:52:55;;;;;;;;;;;18.00;34.40;;;;;;5157308;27;20022;-50
2021/12/11 03:55:27;;;;;;;;;;;18.00;34.40;;;;;;5157454;27;19994;-51
2021/12/11 03:57:57;;;;;;;;;;;18.00;34.30;;;;;;5157708;27;20009;-50
2021/12/11 04:00:24;;;;;;;;;;;18.00;34.30;;;;;;5157153;27;19919;-51
2021/12/11 04:02:52;;;;;;;;;;;18.00;34.40;;;;;;5157352;27;19951;-50
2021/12/11 04:05:17;;;;;;;;;;;18.00;34.30;;;;;;5156954;27;19907;-54
2021/12/11 04:07:45;;;;;;;;;;;18.00;34.40;;;;;;5138658;27;19914;-55
2021/12/11 04:10:13;;;;;;;;;;;17.90;34.30;;;;;;5157344;27;19998;-50
2021/12/11 04:12:38;;;;;;;;;;;18.00;34.30;;;;;;5157185;27;19918;-50
2021/12/11 04:15:05;;;;;;;;;;;18.00;34.30;;;;;;5157056;27;20274;-50
2021/12/11 04:17:30;;;;;;;;;;;17.90;34.40;;;;;;5156897;27;19907;-50
2021/12/11 04:20:07;;;;;;;;;;;17.90;34.40;;;;;;5156901;27;19919;-51
2021/12/11 04:22:32;;;;;;;;;;;17.90;34.30;;;;;;5156957;27;19907;-55
2021/12/11 04:24:58;;;;;;;;;;;17.90;34.30;;;;;;5156930;27;19910;-52
2021/12/11 04:27:27;;;;;;;;;;;17.90;34.30;;;;;;5156746;27;19914;-50
2021/12/11 04:29:54;;;;;;;;;;;17.90;34.30;;;;;;5156790;27;19914;-51
2021/12/11 04:32:20;;;;;;;;;;;17.90;34.30;;;;;;5156914;27;20002;-51
2021/12/11 04:34:46;;;;;;;;;;;17.90;34.30;;;;;;5156826;27;19907;-55
2021/12/11 04:37:17;;;;;;;;;;;17.90;34.30;;;;;;5156810;27;20377;-54
2021/12/11 04:39:44;;;;;;;;;;;17.90;34.30;;;;;;5156545;27;19914;-53
2021/12/11 04:42:22;;;;;;;;;;;17.90;34.30;;;;;;5156629;27;19958;-52
2021/12/11 04:44:48;;;;;;;;;;;17.90;34.20;;;;;;5156518;27;20282;-51
2021/12/11 04:47:25;;;;;;;;;;;17.90;34.30;;;;;;5156359;27;19907;-51
2021/12/11 04:49:57;;;;;;;;;;;17.90;34.20;;;;;;5156556;27;20217;-52
2021/12/11 04:52:45;;;;;;;;;;;17.90;34.30;;;;;;5156337;27;19922;-54
2021/12/11 05:01:09;;;;;;;;;;;17.90;34.20;;;;;;5088288;27;20336;-55
2021/12/11 05:09:22;;;;;;;;;;;17.90;34.20;;;;;;5156446;27;19913;-51
2021/12/11 05:12:06;;;;;;;;;;;17.90;34.30;;;;;;5156191;27;19907;-52
2021/12/11 05:14:32;;;;;;;;;;;17.80;34.30;;;;;;5156100;27;19964;-50
2021/12/11 05:16:57;;;;;;;;;;;17.90;34.20;;;;;;5155971;27;19941;-56
2021/12/11 05:19:23;;;;;;;;;;;17.90;34.20;;;;;;5155730;27;20411;-53
2021/12/11 05:21:48;;;;;;;;;;;17.90;34.20;;;;;;5155674;27;19914;-51
2021/12/11 05:24:15;;;;;;;;;;;18.00;34.20;;;;;;5155758;27;19908;-50
2021/12/11 05:26:41;;;;;;;;;;;18.00;34.20;;;;;;5155865;27;19930;-55
2021/12/11 05:29:07;;;;;;;;;;;18.00;34.20;;;;;;5155731;27;19907;-53
2021/12/11 05:31:33;;;;;;;;;;;18.00;34.20;;;;;;5155621;27;19911;-52
2021/12/11 05:33:58;;;;;;;;;;;18.00;34.10;;;;;;5155748;27;19922;-51
2021/12/11 05:36:27;;;;;;;;;;;18.00;34.10;;;;;;5155795;27;19924;-50
2021/12/11 05:38:52;;;;;;;;;;;18.00;34.00;;;;;;5155426;27;19907;-51
2021/12/11 05:41:20;;;;;;;;;;;18.10;34.00;;;;;;5154901;27;19914;-50
2021/12/11 05:43:45;;;;;;;;;;;18.10;34.00;;;;;;5155318;27;20377;-50
2021/12/11 05:46:13;;;;;;;;;;;18.10;34.00;;;;;;5155528;27;19907;-53
2021/12/11 05:48:38;;;;;;;;;;;18.10;34.00;;;;;;5155566;27;19907;-50
2021/12/11 05:51:05;;;;;;;;;;;18.20;34.00;;;;;;5155271;27;19989;-54
2021/12/11 05:53:33;;;;;;;;;;;18.20;34.00;;;;;;5155110;27;20355;-53
2021/12/11 05:56:00;;;;;;;;;;;18.20;33.90;;;;;;5155486;27;19989;-53
2021/12/11 05:58:46;;;;;;;;;;;18.20;33.90;;;;;;5154950;27;20363;-52
2021/12/11 06:01:13;;;;;;;;;;;18.20;33.90;;;;;;5155191;27;20374;-51
2021/12/11 06:03:38;;;;;;;;;;;18.30;33.90;;;;;;5155101;27;19998;-51
2021/12/11 06:06:05;;;;;;;;;;;18.30;33.90;;;;;;5155143;27;19993;-52
2021/12/11 06:08:31;;;;;;;;;;;18.30;34.00;;;;;;5155014;27;19960;-50
2021/12/11 06:10:57;;;;;;;;;;;18.30;33.90;;;;;;5155312;27;19919;-52
2021/12/11 06:13:25;;;;;;;;;;;18.30;33.90;;;;;;5154883;27;20320;-50
2021/12/11 06:15:53;;;;;;;;;;;18.30;33.90;;;;;;5155023;27;20393;-51
2021/12/11 06:18:19;;;;;;;;;;;18.40;34.00;;;;;;5155262;27;19907;-51
2021/12/11 06:20:47;;;;;;;;;;;18.40;33.90;;;;;;5154873;27;19911;-50
2021/12/11 06:23:14;;;;;;;;;;;18.40;33.90;;;;;;5155211;27;19918;-50
2021/12/11 06:25:39;;;;;;;;;;;18.40;34.00;;;;;;5155039;27;19914;-54
2021/12/11 06:28:05;;;;;;;;;;;18.40;33.90;;;;;;5154918;27;19907;-53
2021/12/11 06:30:31;;;;;;;;;;;18.40;33.90;;;;;;5155223;27;19907;-51
2021/12/11 06:32:57;;;;;;;;;;;18.40;33.90;;;;;;5154777;27;19919;-51
2021/12/11 06:35:32;;;;;;;;;;;18.50;33.90;;;;;;5155021;27;19991;-54
2021/12/11 06:38:00;;;;;;;;;;;18.50;33.90;;;;;;5154851;27;19943;-52
2021/12/11 06:40:26;;;;;;;;;;;18.50;33.90;;;;;;5154948;27;20247;-51
2021/12/11 06:42:52;;;;;;;;;;;18.50;34.00;;;;;;5154850;27;19914;-54
2021/12/11 06:45:18;;;;;;;;;;;18.50;33.90;;;;;;5155039;27;19952;-53
2021/12/11 06:47:44;;;;;;;;;;;18.50;34.00;;;;;;5154929;27;19907;-55
2021/12/11 06:50:09;;;;;;;;;;;18.50;34.00;;;;;;5154894;27;20246;-51
2021/12/11 06:52:35;;;;;;;;;;;18.50;34.00;;;;;;5154796;27;19967;-52
2021/12/11 06:55:00;;;;;;;;;;;18.50;33.90;;;;;;5157615;27;20278;-51
2021/12/11 06:57:26;;;;;;;;;;;18.50;34.00;;;;;;5158594;27;19956;-49
2021/12/11 06:59:51;;;;;;;;;;;18.50;34.00;;;;;;5158341;27;20366;-51
2021/12/11 07:02:19;;;;;;;;;;;18.50;34.00;;;;;;5158374;27;19907;-53
2021/12/11 07:04:45;;;;;;;;;;;18.50;34.00;;;;;;5158722;27;19920;-51
2021/12/11 07:07:16;;;;;;;;;;;18.50;34.00;;;;;;5158336;27;20281;-54
2021/12/11 07:09:42;;;;;;;;;;;18.50;34.10;;;;;;5158662;27;19907;-51
2021/12/11 07:12:08;;;;;;;;;;;18.50;34.00;;;;;;5158248;27;19918;-53
2021/12/11 07:14:33;;;;;;;;;;;18.60;34.00;;;;;;5158446;27;19912;-52
2021/12/11 07:16:59;;;;;;;;;;;18.60;34.00;;;;;;5158342;27;19907;-53
2021/12/11 07:19:25;;;;;;;;;;;18.60;34.10;;;;;;5158137;27;19911;-52
2021/12/11 07:21:51;;;;;;;;;;;18.60;34.00;;;;;;5158197;27;19914;-52
2021/12/11 07:24:19;;;;;;;;;;;18.60;34.10;;;;;;5139729;27;19911;-55
2021/12/11 07:26:45;;;;;;;;;;;18.60;34.10;;;;;;5158072;27;19952;-53
2021/12/11 07:29:13;;;;;;;;;;;18.60;34.10;;;;;;5157999;27;20319;-50
2021/12/11 07:31:40;;;;;;;;;;;18.60;34.10;;;;;;5157662;27;19997;-52
2021/12/11 07:34:05;;;;;;;;;;;18.60;34.10;;;;;;5139284;27;19919;-52
2021/12/11 07:36:31;;;;;;;;;;;18.60;34.10;;;;;;5157804;27;19907;-53
2021/12/11 07:38:59;;;;;;;;;;;18.60;34.10;;;;;;5157693;27;19915;-50
2021/12/11 07:41:25;;;;;;;;;;;18.70;34.10;;;;;;5157783;27;19907;-51
2021/12/11 07:43:50;;;;;;;;;;;18.70;34.20;;;;;;5157664;27;20410;-51
2021/12/11 07:46:19;;;;;;;;;;;18.60;34.10;;;;;;5157648;27;19946;-51
2021/12/11 07:48:45;;;;;;;;;;;18.70;34.10;;;;;;5157811;27;19907;-50
2021/12/11 07:51:11;;;;;;;;;;;18.70;34.20;;;;;;5157603;27;19907;-52
2021/12/11 07:53:37;;;;;;;;;;;18.70;34.20;;;;;;5157405;27;19919;-53
2021/12/11 07:56:03;;;;;;;;;;;18.70;34.20;;;;;;5157512;27;19914;-51
2021/12/11 07:58:33;;;;;;;;;;;18.70;34.20;;;;;;5157151;27;19914;-53
2021/12/11 08:00:59;;;;;;;;;;;18.70;34.20;;;;;;5157402;27;20005;-53
2021/12/11 08:03:25;;;;;;;;;;;18.70;34.20;;;;;;5157066;27;19969;-54
2021/12/11 08:05:52;;;;;;;;;;;18.70;34.20;;;;;;5156728;27;19907;-49
2021/12/11 08:08:18;;;;;;;;;;;18.70;34.20;;;;;;5156982;27;19918;-55
2021/12/11 08:10:45;;;;;;;;;;;18.80;34.20;;;;;;5157365;27;19914;-55
2021/12/11 08:13:11;;;;;;;;;;;18.70;34.20;;;;;;5157064;27;19938;-52
2021/12/11 08:15:37;;;;;;;;;;;18.80;34.20;;;;;;5157007;27;19911;-53
2021/12/11 08:18:04;;;;;;;;;;;18.80;34.20;;;;;;5157094;27;19963;-49
2021/12/11 08:20:31;;;;;;;;;;;18.70;34.20;;;;;;5157025;27;19949;-52
2021/12/11 08:22:57;;;;;;;;;;;18.80;34.20;;;;;;5156878;27;19918;-49
2021/12/11 08:25:25;;;;;;;;;;;18.80;34.20;;;;;;5157053;27;20006;-52
2021/12/11 08:27:51;;;;;;;;;;;18.80;34.20;;;;;;5156681;27;19907;-50
2021/12/11 08:30:17;;;;;;;;;;;18.80;34.20;;;;;;5156623;27;19914;-50
2021/12/11 08:32:43;;;;;;;;;;;18.80;34.20;;;;;;5156826;27;19912;-50
2021/12/11 08:35:10;;;;;;;;;;;18.80;34.30;;;;;;5156596;27;20259;-51
2021/12/11 08:37:36;;;;;;;;;;;18.80;34.30;;;;;;5156496;27;20342;-54
2021/12/11 08:40:04;;;;;;;;;;;18.80;34.20;;;;;;5156720;27;20373;-50
2021/12/11 08:42:29;;;;;;;;;;;18.80;34.20;;;;;;5156318;27;19908;-52
2021/12/11 08:45:04;;;;;;;;;;;18.80;34.20;;;;;;5156483;27;20064;-50
2021/12/11 08:47:30;;;;;;;;;;;18.80;34.20;;;;;;5156681;27;19907;-51
2021/12/11 08:49:57;;;;;;;;;;;18.80;34.20;;;;;;5156609;27;20014;-50
2021/12/11 08:52:25;;;;;;;;;;;18.80;34.30;;;;;;5156295;27;19915;-54
2021/12/11 08:54:50;;;;;;;;;;;18.80;34.30;;;;;;5156435;27;19993;-53
2021/12/11 08:57:18;;;;;;;;;;;18.90;34.30;;;;;;5156142;27;20014;-52
2021/12/11 08:59:45;;;;;;;;;;;18.90;34.20;;;;;;5156038;27;20036;-51
2021/12/11 09:02:14;;;;;;;;;;;18.90;34.20;;;;;;5156031;27;19907;-50
2021/12/11 09:04:43;;;;;;;;;;;18.90;34.20;;;;;;5156077;27;19998;-50
2021/12/11 09:07:38;;;;;;;;;;;18.90;34.20;;;;;;5155843;27;20265;-49
2021/12/11 09:10:10;;;;;;;;;;;18.90;34.20;;;;;;5133544;27;19914;-51
2021/12/11 09:12:39;;;;;;;;;;;18.90;34.20;;;;;;5156360;27;20007;-55
2021/12/11 09:15:09;;;;;;;;;;;18.90;34.20;;;;;;5155869;27;19956;-53
2021/12/11 09:17:36;;;;;;;;;;;18.90;34.30;;;;;;5155082;27;19907;-53
2021/12/11 09:20:11;;;;;;;;;;;18.90;34.20;;;;;;5155593;27;19908;-55
2021/12/11 09:22:41;;;;;;;;;;;19.00;34.30;;;;;;5155813;27;19915;-49
2021/12/11 09:25:13;;;;;;;;;;;18.90;34.30;;;;;;5155686;27;19946;-50
2021/12/11 09:27:41;;;;;;;;;;;18.90;34.30;;;;;;5155464;27;19914;-49
2021/12/11 09:30:13;;;;;;;;;;;19.00;34.30;;;;;;5155362;27;20419;-50
2021/12/11 09:32:41;;;;;;;;;;;19.00;34.30;;;;;;5155438;27;19918;-50
2021/12/11 09:35:18;;;;;;;;;;;18.90;34.30;;;;;;5155593;27;19911;-51
2021/12/11 09:37:44;;;;;;;;;;;18.90;34.30;;;;;;5136888;27;19913;-51
2021/12/11 09:40:15;;;;;;;;;;;19.00;34.40;;;;;;5155189;27;20362;-49
2021/12/11 09:42:40;;;;;;;;;;;19.00;34.30;;;;;;5155274;27;19915;-49
2021/12/11 09:45:06;;;;;;;;;;;19.00;34.30;;;;;;5155099;27;19912;-50
2021/12/11 09:47:35;;;;;;;;;;;19.00;34.30;;;;;;5155304;27;20274;-49
2021/12/11 09:50:05;;;;;;;;;;;19.00;34.30;;;;;;5155417;27;20236;-51
2021/12/11 09:52:32;;;;;;;;;;;19.00;34.30;;;;;;5155051;27;19922;-52
2021/12/11 09:55:05;;;;;;;;;;;19.00;34.30;;;;;;5155112;27;19907;-51
2021/12/11 09:57:32;;;;;;;;;;;19.00;34.30;;;;;;5155037;27;19907;-51
2021/12/11 09:59:58;;;;;;;;;;;19.00;34.30;;;;;;5154715;27;20005;-51
2021/12/11 10:02:27;;;;;;;;;;;19.00;34.30;;;;;;5154788;27;19929;-52
2021/12/11 10:05:01;;;;;;;;;;;19.00;34.30;;;;;;5154908;27;19907;-50
2021/12/11 10:07:35;;;;;;;;;;;19.00;34.30;;;;;;5154743;27;20022;-50
2021/12/11 10:10:21;;;;;;;;;;;19.00;34.30;;;;;;5154556;27;19907;-51
2021/12/11 10:12:49;;;;;;;;;;;19.00;34.30;;;;;;5153973;27;19976;-50
2021/12/11 10:15:19;;;;;;;;;;;19.00;34.30;;;;;;5154659;27;20010;-49
2021/12/11 10:17:48;;;;;;;;;;;19.00;34.40;;;;;;5154662;27;19949;-49
2021/12/11 10:20:22;;;;;;;;;;;19.10;34.30;;;;;;5155044;27;19966;-53
2021/12/11 10:22:49;;;;;;;;;;;19.10;34.30;;;;;;5154930;27;19955;-52
2021/12/11 10:25:17;;;;;;;;;;;19.10;34.40;;;;;;5136154;27;19915;-49
2021/12/11 10:27:43;;;;;;;;;;;19.10;34.30;;;;;;5155748;27;19947;-50
2021/12/11 10:30:10;;;;;;;;;;;19.10;34.30;;;;;;5158874;27;20381;-52
2021/12/11 10:32:35;;;;;;;;;;;19.10;34.30;;;;;;5158629;27;20427;-54
2021/12/11 10:35:04;;;;;;;;;;;19.10;34.40;;;;;;5158765;27;19911;-53
2021/12/11 10:37:34;;;;;;;;;;;19.10;34.40;;;;;;5158843;27;19990;-54
2021/12/11 10:40:04;;;;;;;;;;;19.10;34.40;;;;;;5158639;27;19913;-51
2021/12/11 10:42:30;;;;;;;;;;;19.10;34.40;;;;;;5158800;27;19914;-51
2021/12/11 10:44:57;;;;;;;;;;;19.10;34.40;;;;;;5158617;27;20281;-50
2021/12/11 10:47:25;;;;;;;;;;;19.10;34.50;;;;;;5158546;27;19907;-50
2021/12/11 10:49:51;;;;;;;;;;;19.10;34.40;;;;;;5158936;27;19911;-51
2021/12/11 10:52:22;;;;;;;;;;;19.10;34.40;;;;;;5158459;27;19965;-52
2021/12/11 10:54:48;;;;;;;;;;;19.10;34.50;;;;;;5158318;27;19911;-49
2021/12/11 10:57:15;;;;;;;;;;;19.10;34.50;;;;;;5158789;27;19907;-53
2021/12/11 10:59:42;;;;;;;;;;;19.10;34.40;;;;;;5158136;27;19919;-54
2021/12/11 11:02:10;;;;;;;;;;;19.10;34.40;;;;;;5158389;27;19974;-53
2021/12/11 11:04:39;;;;;;;;;;;19.20;34.40;;;;;;5158593;27;19907;-56
2021/12/11 11:07:07;;;;;;;;;;;19.20;34.50;;;;;;5157682;27;21272;-50
2021/12/11 11:09:32;;;;;;;;;;;19.10;34.40;;;;;;5158147;27;19907;-49
2021/12/11 11:12:02;;;;;;;;;;;19.20;34.40;;;;;;5157980;27;20270;-55
2021/12/11 11:14:30;;;;;;;;;;;19.10;34.50;;;;;;5157902;27;19912;-54
2021/12/11 11:16:57;;;;;;;;;;;19.20;34.50;;;;;;5158001;27;19966;-52
2021/12/11 11:19:24;;;;;;;;;;;19.20;34.50;;;;;;5158027;27;19907;-51
2021/12/11 11:21:56;;;;;;;;;;;19.20;34.50;;;;;;5157870;27;19908;-54
2021/12/11 11:24:23;;;;;;;;;;;19.20;34.50;;;;;;5158002;27;19907;-52
2021/12/11 11:26:49;;;;;;;;;;;19.20;34.50;;;;;;5158192;27;20286;-56
2021/12/11 11:29:17;;;;;;;;;;;19.20;34.50;;;;;;5157820;27;20210;-51
2021/12/11 11:31:44;;;;;;;;;;;19.20;34.50;;;;;;5158119;27;19915;-54
2021/12/11 11:34:12;;;;;;;;;;;19.20;34.50;;;;;;5157729;27;20019;-51
2021/12/11 11:36:37;;;;;;;;;;;19.20;34.50;;;;;;5157818;27;19915;-55
2021/12/11 11:39:06;;;;;;;;;;;19.20;34.60;;;;;;5157248;27;19934;-51
2021/12/11 11:41:36;;;;;;;;;;;19.20;34.60;;;;;;5157440;27;19986;-52
2021/12/11 11:44:03;;;;;;;;;;;19.20;34.60;;;;;;5157895;27;19939;-50
2021/12/11 11:46:29;;;;;;;;;;;19.20;34.60;;;;;;5157668;27;19907;-49
2021/12/11 11:48:56;;;;;;;;;;;19.20;34.60;;;;;;5157564;27;19907;-52
2021/12/11 11:51:30;;;;;;;;;;;19.20;34.60;;;;;;5157304;27;19907;-51
2021/12/11 11:53:56;;;;;;;;;;;19.20;34.60;;;;;;5157129;27;19916;-51
2021/12/11 11:56:23;;;;;;;;;;;19.20;34.70;;;;;;5157094;27;19911;-50
2021/12/11 11:58:50;;;;;;;;;;;19.20;34.70;;;;;;5157104;27;19917;-54
2021/12/11 12:01:21;;;;;;;;;;;19.20;34.70;;;;;;5157494;27;19915;-51
2021/12/11 12:03:47;;;;;;;;;;;19.20;34.70;;;;;;5157226;27;19911;-51
2021/12/11 12:06:20;;;;;;;;;;;19.20;34.70;;;;;;5156980;27;19914;-54
2021/12/11 12:08:46;;;;;;;;;;;19.20;34.70;;;;;;5157061;27;19907;-51
2021/12/11 12:11:11;;;;;;;;;;;19.20;34.70;;;;;;5157261;27;19958;-55
2021/12/11 12:13:37;;;;;;;;;;;19.20;34.80;;;;;;5157203;27;20381;-52
2021/12/11 12:16:06;;;;;;;;;;;19.20;34.70;;;;;;5156643;27;19911;-50
2021/12/11 12:18:31;;;;;;;;;;;19.20;34.70;;;;;;5156951;27;19907;-54
2021/12/11 12:20:57;;;;;;;;;;;19.30;34.70;;;;;;5157009;27;19941;-50
2021/12/11 12:23:24;;;;;;;;;;;19.20;34.70;;;;;;5156922;27;20361;-50
2021/12/11 12:25:51;;;;;;;;;;;19.20;34.80;;;;;;5156756;27;19964;-50
2021/12/11 12:28:17;;;;;;;;;;;19.20;34.80;;;;;;5156985;27;19946;-53
2021/12/11 12:30:46;;;;;;;;;;;19.20;34.80;;;;;;5156627;27;19907;-53
2021/12/11 12:33:12;;;;;;;;;;;19.30;34.80;;;;;;5156669;27;19950;-52
2021/12/11 12:35:38;;;;;;;;;;;19.30;34.80;;;;;;5156358;27;19911;-51
2021/12/11 12:38:24;;;;;;;;;;;19.20;34.80;;;;;;5156844;27;20373;-55
2021/12/11 12:41:00;;;;;;;;;;;19.20;34.80;;;;;;5155491;27;19959;-52
2021/12/11 12:46:14;;;;;;;;;;;19.20;34.80;;;;;;5156458;27;19937;-54
2021/12/11 12:48:40;;;;;;;;;;;19.20;34.90;;;;;;5156471;27;19959;-54
2021/12/11 12:51:07;;;;;;;;;;;19.30;34.80;;;;;;5155405;27;19907;-52
2021/12/11 12:53:34;;;;;;;;;;;19.30;34.80;;;;;;5155838;27;20014;-53
2021/12/11 12:56:02;;;;;;;;;;;19.30;34.90;;;;;;5156363;27;19914;-51
2021/12/11 12:58:30;;;;;;;;;;;19.30;34.90;;;;;;5155956;27;19911;-51
2021/12/11 13:00:58;;;;;;;;;;;19.30;34.90;;;;;;5155691;27;19915;-53
2021/12/11 13:03:26;;;;;;;;;;;19.30;34.90;;;;;;5155532;27;20262;-53
2021/12/11 13:05:55;;;;;;;;;;;19.30;34.90;;;;;;5155817;27;19961;-53
2021/12/11 13:08:29;;;;;;;;;;;19.30;34.90;;;;;;5156021;27;20032;-52
2021/12/11 13:10:57;;;;;;;;;;;19.30;34.90;;;;;;5155768;27;20388;-53
2021/12/11 13:13:23;;;;;;;;;;;19.30;34.90;;;;;;5155542;27;20018;-51
2021/12/11 13:15:52;;;;;;;;;;;19.30;34.90;;;;;;5155802;27;20006;-55
2021/12/11 13:18:20;;;;;;;;;;;19.30;34.90;;;;;;5156020;27;19911;-51
2021/12/11 13:20:51;;;;;;;;;;;19.30;34.90;;;;;;5155598;27;19907;-49
2021/12/11 13:23:18;;;;;;;;;;;19.30;34.90;;;;;;5155438;27;19956;-54
2021/12/11 13:25:47;;;;;;;;;;;19.30;35.00;;;;;;5137032;27;20435;-51
2021/12/11 13:28:13;;;;;;;;;;;19.30;34.90;;;;;;5155814;27;19907;-54
2021/12/11 13:30:47;;;;;;;;;;;19.30;35.00;;;;;;5155605;27;19914;-56
2021/12/11 13:33:13;;;;;;;;;;;19.30;35.00;;;;;;5155418;27;20035;-52
2021/12/11 13:35:43;;;;;;;;;;;19.30;34.90;;;;;;5155571;27;19941;-54
2021/12/11 13:38:09;;;;;;;;;;;19.30;34.90;;;;;;5155576;27;19994;-55
2021/12/11 13:40:35;;;;;;;;;;;19.30;35.00;;;;;;5155623;27;19907;-52
2021/12/11 13:43:01;;;;;;;;;;;19.30;35.00;;;;;;5155615;27;19911;-53
2021/12/11 13:45:31;;;;;;;;;;;19.30;35.00;;;;;;5155323;27;19951;-51
2021/12/11 13:47:56;;;;;;;;;;;19.30;35.00;;;;;;5136802;27;19907;-50
2021/12/11 13:50:32;;;;;;;;;;;19.40;35.00;;;;;;5155384;27;19932;-52
2021/12/11 13:52:58;;;;;;;;;;;19.40;35.00;;;;;;5155182;27;19965;-54
2021/12/11 13:55:24;;;;;;;;;;;19.40;35.00;;;;;;5154987;27;19914;-52
2021/12/11 13:57:50;;;;;;;;;;;19.40;35.00;;;;;;5155476;27;19951;-54
2021/12/11 14:00:18;;;;;;;;;;;19.40;35.00;;;;;;5154980;27;19958;-55
2021/12/11 14:02:44;;;;;;;;;;;19.30;35.00;;;;;;5154729;27;19908;-54
2021/12/11 14:05:10;;;;;;;;;;;19.40;35.00;;;;;;5155163;27;20353;-56
2021/12/11 14:07:38;;;;;;;;;;;19.40;35.10;;;;;;5154939;27;19907;-55
2021/12/11 14:10:10;;;;;;;;;;;19.40;35.00;;;;;;5154968;27;20407;-51
2021/12/11 14:12:36;;;;;;;;;;;19.40;35.10;;;;;;5154862;27;20449;-56
2021/12/11 14:15:03;;;;;;;;;;;19.40;35.10;;;;;;5154922;27;19907;-51
2021/12/11 14:17:29;;;;;;;;;;;19.40;35.10;;;;;;5155018;27;20293;-51
2021/12/11 14:19:54;;;;;;;;;;;19.30;35.10;;;;;;5154852;27;20010;-51
2021/12/11 14:22:23;;;;;;;;;;;19.30;35.10;;;;;;5154990;27;20389;-50
2021/12/11 14:24:49;;;;;;;;;;;19.40;35.10;;;;;;5155033;27;20266;-51
2021/12/11 14:27:15;;;;;;;;;;;19.40;35.10;;;;;;5154735;27;19907;-54
2021/12/11 14:29:45;;;;;;;;;;;19.40;35.10;;;;;;5154990;27;20319;-55
2021/12/11 14:32:15;;;;;;;;;;;19.40;35.10;;;;;;5154994;27;19914;-50
2021/12/11 14:34:41;;;;;;;;;;;19.40;35.20;;;;;;5154637;27;19918;-53
2021/12/11 14:37:07;;;;;;;;;;;19.40;35.20;;;;;;5154655;27;19911;-56
2021/12/11 14:39:32;;;;;;;;;;;19.30;35.20;;;;;;5155010;27;19918;-50